createdAt,value
2023-05-01T00:00:56.918Z,534.00
2023-05-01T00:01:56.951Z,534.00
2023-05-01T00:02:57.045Z,532.00
2023-05-01T00:03:57.192Z,531.00
2023-05-01T00:04:57.070Z,539.00
2023-05-01T00:05:57.012Z,534.00
2023-05-01T00:06:56.996Z,533.00
2023-05-01T00:07:57.004Z,536.00
2023-05-01T00:08:56.984Z,535.00
2023-05-01T00:09:57.328Z,530.00
2023-05-01T00:10:57.008Z,536.00
2023-05-01T00:11:57.068Z,534.00
2023-05-01T00:12:57.041Z,538.00
2023-05-01T00:13:57.053Z,529.00
2023-05-01T00:14:57.053Z,531.00
2023-05-01T00:15:57.105Z,532.00
2023-05-01T00:16:57.193Z,533.00
2023-05-01T00:17:57.239Z,526.00
2023-05-01T00:18:57.137Z,534.00
2023-05-01T00:19:57.544Z,537.00
2023-05-01T00:20:57.187Z,533.00
2023-05-01T00:21:57.159Z,535.00
2023-05-01T00:22:57.173Z,528.00
2023-05-01T00:23:57.140Z,531.00
2023-05-01T00:24:57.226Z,531.00
2023-05-01T00:25:57.158Z,532.00
2023-05-01T00:26:57.153Z,533.00
2023-05-01T00:27:57.168Z,530.00
2023-05-01T00:28:57.210Z,533.00
2023-05-01T00:29:57.465Z,536.00
2023-05-01T00:30:57.188Z,538.00
2023-05-01T00:31:57.239Z,539.00
2023-05-01T00:32:57.259Z,532.00
2023-05-01T00:33:57.207Z,533.00
2023-05-01T00:34:57.216Z,534.00
2023-05-01T00:35:57.211Z,535.00
2023-05-01T00:36:57.682Z,533.00
2023-05-01T00:37:57.229Z,533.00
2023-05-01T00:38:57.253Z,533.00
2023-05-01T00:39:57.600Z,535.00
2023-05-01T00:40:57.270Z,535.00
2023-05-01T00:41:57.253Z,539.00
2023-05-01T00:42:57.244Z,527.00
2023-05-01T00:43:57.276Z,532.00
2023-05-01T00:44:57.230Z,534.00
2023-05-01T00:45:57.257Z,529.00
2023-05-01T00:46:57.275Z,535.00
2023-05-01T00:47:57.254Z,536.00
2023-05-01T00:48:57.278Z,534.00
2023-05-01T00:49:57.489Z,531.00
2023-05-01T00:50:57.225Z,533.00
2023-05-01T00:51:57.224Z,533.00
2023-05-01T00:52:57.222Z,532.00
2023-05-01T00:53:57.243Z,533.00
2023-05-01T00:54:57.258Z,539.00
2023-05-01T00:55:57.253Z,531.00
2023-05-01T00:56:57.236Z,534.00
2023-05-01T00:57:57.224Z,530.00
2023-05-01T00:58:57.242Z,537.00
2023-05-01T00:59:57.475Z,529.00
2023-05-01T01:00:57.322Z,533.00
2023-05-01T01:01:57.301Z,539.00
2023-05-01T01:02:57.292Z,532.00
2023-05-01T01:03:57.350Z,531.00
2023-05-01T01:04:57.357Z,539.00
2023-05-01T01:05:57.345Z,531.00
2023-05-01T01:06:57.290Z,538.00
2023-05-01T01:07:57.301Z,532.00
2023-05-01T01:08:57.268Z,537.00
2023-05-01T01:09:57.542Z,535.00
2023-05-01T01:10:57.719Z,532.00
2023-05-01T01:11:57.283Z,535.00
2023-05-01T01:12:57.297Z,537.00
2023-05-01T01:13:57.319Z,534.00
2023-05-01T01:14:57.350Z,530.00
2023-05-01T01:15:57.366Z,531.00
2023-05-01T01:16:57.445Z,530.00
2023-05-01T01:17:57.451Z,532.00
2023-05-01T01:18:57.362Z,531.00
2023-05-01T01:19:57.658Z,537.00
2023-05-01T01:20:57.385Z,529.00
2023-05-01T01:21:57.396Z,532.00
2023-05-01T01:22:57.392Z,528.00
2023-05-01T01:23:57.393Z,533.00
2023-05-01T01:24:57.440Z,532.00
2023-05-01T01:25:57.436Z,537.00
2023-05-01T01:26:57.404Z,535.00
2023-05-01T01:27:57.415Z,534.00
2023-05-01T01:28:57.438Z,532.00
2023-05-01T01:29:57.700Z,529.00
2023-05-01T01:30:57.459Z,535.00
2023-05-01T01:31:57.437Z,534.00
2023-05-01T01:32:57.430Z,530.00
2023-05-01T01:33:57.435Z,532.00
2023-05-01T01:34:57.402Z,534.00
2023-05-01T01:35:57.428Z,532.00
2023-05-01T01:36:57.436Z,534.00
2023-05-01T01:37:57.507Z,534.00
2023-05-01T01:38:57.418Z,536.00
2023-05-01T01:39:57.652Z,536.00
2023-05-01T01:40:57.440Z,530.00
2023-05-01T01:41:57.421Z,532.00
2023-05-01T01:42:57.407Z,532.00
2023-05-01T01:43:57.397Z,531.00
2023-05-01T01:44:57.398Z,535.00
2023-05-01T01:45:57.439Z,536.00
2023-05-01T01:46:57.403Z,529.00
2023-05-01T01:47:57.468Z,532.00
2023-05-01T01:48:57.414Z,534.00
2023-05-01T01:49:57.553Z,533.00
2023-05-01T01:50:57.444Z,537.00
2023-05-01T01:51:57.417Z,533.00
2023-05-01T01:52:57.418Z,528.00
2023-05-01T01:53:57.400Z,528.00
2023-05-01T01:54:57.390Z,532.00
2023-05-01T01:55:57.458Z,534.00
2023-05-01T01:56:57.405Z,535.00
2023-05-01T01:57:57.418Z,530.00
2023-05-01T01:58:57.393Z,530.00
2023-05-01T01:59:57.677Z,533.00
2023-05-01T02:00:57.413Z,532.00
2023-05-01T02:01:57.542Z,537.00
2023-05-01T02:02:57.522Z,531.00
2023-05-01T02:03:57.465Z,531.00
2023-05-01T02:04:57.466Z,530.00
2023-05-01T02:05:57.472Z,529.00
2023-05-01T02:06:57.477Z,534.00
2023-05-01T02:07:57.444Z,536.00
2023-05-01T02:08:57.451Z,533.00
2023-05-01T02:09:57.639Z,533.00
2023-05-01T02:10:58.801Z,534.00
2023-05-01T02:11:57.504Z,531.00
2023-05-01T02:12:57.451Z,532.00
2023-05-01T02:13:57.426Z,531.00
2023-05-01T02:14:57.458Z,536.00
2023-05-01T02:15:57.450Z,529.00
2023-05-01T02:16:57.474Z,538.00
2023-05-01T02:17:57.501Z,534.00
2023-05-01T02:18:57.452Z,531.00
2023-05-01T02:19:57.642Z,531.00
2023-05-01T02:20:57.428Z,528.00
2023-05-01T02:21:57.414Z,533.00
2023-05-01T02:22:57.414Z,530.00
2023-05-01T02:23:57.393Z,529.00
2023-05-01T02:24:57.460Z,530.00
2023-05-01T02:25:57.430Z,535.00
2023-05-01T02:26:57.400Z,527.00
2023-05-01T02:27:57.438Z,532.00
2023-05-01T02:28:57.371Z,530.00
2023-05-01T02:29:57.608Z,530.00
2023-05-01T02:30:57.442Z,525.00
2023-05-01T02:31:57.533Z,537.00
2023-05-01T02:32:57.500Z,531.00
2023-05-01T02:33:57.402Z,537.00
2023-05-01T02:34:57.438Z,527.00
2023-05-01T02:35:57.561Z,534.00
2023-05-01T02:36:57.430Z,526.00
2023-05-01T02:37:57.403Z,531.00
2023-05-01T02:38:57.408Z,536.00
2023-05-01T02:39:57.514Z,527.00
2023-05-01T02:40:57.438Z,528.00
2023-05-01T02:41:57.440Z,528.00
2023-05-01T02:42:57.443Z,532.00
2023-05-01T02:43:57.423Z,535.00
2023-05-01T02:44:57.443Z,529.00
2023-05-01T02:45:57.546Z,527.00
2023-05-01T02:46:57.465Z,526.00
2023-05-01T02:47:57.482Z,529.00
2023-05-01T02:48:57.432Z,530.00
2023-05-01T02:49:57.623Z,530.00
2023-05-01T02:50:57.476Z,532.00
2023-05-01T02:51:57.444Z,533.00
2023-05-01T02:52:57.414Z,538.00
2023-05-01T02:53:57.422Z,531.00
2023-05-01T02:54:57.416Z,530.00
2023-05-01T02:55:57.445Z,529.00
2023-05-01T02:56:57.433Z,529.00
2023-05-01T02:57:57.404Z,529.00
2023-05-01T02:58:57.413Z,533.00
2023-05-01T02:59:57.583Z,530.00
2023-05-01T03:00:57.439Z,528.00
2023-05-01T03:01:57.428Z,530.00
2023-05-01T03:02:57.485Z,531.00
2023-05-01T03:03:57.443Z,527.00
2023-05-01T03:04:57.428Z,534.00
2023-05-01T03:05:57.477Z,526.00
2023-05-01T03:06:57.421Z,528.00
2023-05-01T03:07:57.404Z,530.00
2023-05-01T03:08:57.410Z,529.00
2023-05-01T03:09:57.583Z,527.00
2023-05-01T03:10:57.438Z,530.00
2023-05-01T03:11:57.419Z,530.00
2023-05-01T03:12:57.386Z,535.00
2023-05-01T03:13:57.404Z,529.00
2023-05-01T03:14:57.408Z,529.00
2023-05-01T03:15:57.423Z,531.00
2023-05-01T03:16:57.400Z,528.00
2023-05-01T03:17:57.470Z,529.00
2023-05-01T03:18:57.395Z,532.00
2023-05-01T03:19:57.611Z,530.00
2023-05-01T03:20:57.410Z,528.00
2023-05-01T03:21:57.448Z,532.00
2023-05-01T03:22:57.402Z,531.00
2023-05-01T03:23:57.439Z,529.00
2023-05-01T03:24:57.428Z,526.00
2023-05-01T03:25:57.405Z,528.00
2023-05-01T03:26:57.441Z,527.00
2023-05-01T03:27:57.416Z,527.00
2023-05-01T03:28:57.410Z,533.00
2023-05-01T03:29:57.588Z,531.00
2023-05-01T03:30:57.412Z,531.00
2023-05-01T03:31:57.477Z,528.00
2023-05-01T03:32:57.473Z,527.00
2023-05-01T03:33:57.457Z,528.00
2023-05-01T03:34:57.481Z,530.00
2023-05-01T03:35:57.474Z,526.00
2023-05-01T03:36:57.507Z,527.00
2023-05-01T03:37:57.495Z,528.00
2023-05-01T03:38:57.551Z,529.00
2023-05-01T03:39:57.813Z,532.00
2023-05-01T03:40:57.509Z,528.00
2023-05-01T03:41:57.513Z,530.00
2023-05-01T03:42:57.528Z,534.00
2023-05-01T03:43:57.523Z,528.00
2023-05-01T03:44:57.583Z,527.00
2023-05-01T03:45:57.576Z,529.00
2023-05-01T03:46:57.551Z,525.00
2023-05-01T03:47:57.597Z,535.00
2023-05-01T03:48:57.548Z,528.00
2023-05-01T03:49:57.864Z,527.00
2023-05-01T03:50:57.561Z,525.00
2023-05-01T03:51:57.558Z,528.00
2023-05-01T03:52:57.582Z,534.00
2023-05-01T03:53:57.595Z,529.00
2023-05-01T03:54:57.558Z,526.00
2023-05-01T03:55:57.537Z,528.00
2023-05-01T03:56:57.570Z,527.00
2023-05-01T03:57:57.556Z,529.00
2023-05-01T03:58:57.524Z,533.00
2023-05-01T03:59:57.789Z,525.00
2023-05-01T04:00:57.562Z,526.00
2023-05-01T04:01:57.579Z,527.00
2023-05-01T04:02:57.877Z,522.00
2023-05-01T04:03:57.704Z,529.00
2023-05-01T04:04:57.535Z,531.00
2023-05-01T04:05:57.649Z,528.00
2023-05-01T04:06:57.539Z,528.00
2023-05-01T04:07:57.552Z,527.00
2023-05-01T04:08:57.553Z,534.00
2023-05-01T04:09:57.911Z,528.00
2023-05-01T04:10:57.553Z,525.00
2023-05-01T04:11:57.560Z,530.00
2023-05-01T04:12:57.515Z,526.00
2023-05-01T04:13:57.584Z,524.00
2023-05-01T04:14:57.538Z,526.00
2023-05-01T04:15:57.567Z,527.00
2023-05-01T04:16:57.544Z,526.00
2023-05-01T04:17:57.525Z,524.00
2023-05-01T04:18:57.575Z,525.00
2023-05-01T04:19:57.956Z,526.00
2023-05-01T04:20:57.525Z,525.00
2023-05-01T04:21:57.785Z,526.00
2023-05-01T04:22:57.542Z,528.00
2023-05-01T04:23:57.510Z,529.00
2023-05-01T04:24:57.546Z,527.00
2023-05-01T04:25:57.531Z,529.00
2023-05-01T04:26:57.537Z,522.00
2023-05-01T04:27:57.505Z,524.00
2023-05-01T04:28:57.533Z,527.00
2023-05-01T04:29:58.063Z,528.00
2023-05-01T04:30:57.500Z,535.00
2023-05-01T04:31:57.643Z,528.00
2023-05-01T04:32:57.575Z,528.00
2023-05-01T04:33:57.515Z,528.00
2023-05-01T04:34:57.949Z,525.00
2023-05-01T04:35:57.537Z,526.00
2023-05-01T04:36:57.519Z,528.00
2023-05-01T04:37:57.503Z,529.00
2023-05-01T04:38:57.535Z,530.00
2023-05-01T04:39:57.684Z,530.00
2023-05-01T04:40:57.505Z,525.00
2023-05-01T04:41:57.489Z,525.00
2023-05-01T04:42:57.510Z,528.00
2023-05-01T04:43:57.514Z,519.00
2023-05-01T04:44:57.511Z,528.00
2023-05-01T04:45:57.491Z,527.00
2023-05-01T04:46:57.559Z,522.00
2023-05-01T04:47:57.537Z,523.00
2023-05-01T04:48:57.498Z,526.00
2023-05-01T04:49:57.870Z,526.00
2023-05-01T04:50:57.497Z,529.00
2023-05-01T04:51:57.490Z,525.00
2023-05-01T04:52:57.486Z,524.00
2023-05-01T04:53:57.482Z,528.00
2023-05-01T04:54:57.481Z,527.00
2023-05-01T04:55:57.452Z,534.00
2023-05-01T04:56:57.489Z,530.00
2023-05-01T04:57:57.440Z,521.00
2023-05-01T04:58:57.466Z,531.00
2023-05-01T04:59:57.894Z,528.00
2023-05-01T05:00:57.460Z,524.00
2023-05-01T05:01:57.558Z,531.00
2023-05-01T05:02:58.400Z,533.00
2023-05-01T05:03:57.562Z,528.00
2023-05-01T05:04:57.440Z,527.00
2023-05-01T05:05:57.522Z,529.00
2023-05-01T05:06:57.791Z,529.00
2023-05-01T05:07:57.473Z,527.00
2023-05-01T05:08:57.478Z,524.00
2023-05-01T05:09:57.715Z,527.00
2023-05-01T05:10:57.442Z,526.00
2023-05-01T05:11:57.433Z,531.00
2023-05-01T05:12:57.460Z,530.00
2023-05-01T05:13:57.449Z,531.00
2023-05-01T05:14:57.440Z,525.00
2023-05-01T05:15:57.504Z,523.00
2023-05-01T05:16:57.590Z,526.00
2023-05-01T05:17:57.487Z,526.00
2023-05-01T05:18:57.429Z,526.00
2023-05-01T05:19:57.582Z,523.00
2023-05-01T05:20:57.440Z,523.00
2023-05-01T05:21:57.422Z,529.00
2023-05-01T05:22:57.453Z,523.00
2023-05-01T05:23:57.453Z,531.00
2023-05-01T05:24:57.414Z,528.00
2023-05-01T05:25:57.416Z,525.00
2023-05-01T05:26:57.424Z,527.00
2023-05-01T05:27:57.429Z,527.00
2023-05-01T05:28:57.436Z,532.00
2023-05-01T05:29:57.625Z,530.00
2023-05-01T05:30:57.391Z,526.00
2023-05-01T05:31:57.482Z,528.00
2023-05-01T05:32:57.422Z,528.00
2023-05-01T05:33:57.395Z,521.00
2023-05-01T05:34:57.387Z,522.00
2023-05-01T05:35:57.400Z,532.00
2023-05-01T05:36:57.402Z,529.00
2023-05-01T05:37:57.403Z,522.00
2023-05-01T05:38:57.391Z,529.00
2023-05-01T05:39:57.620Z,521.00
2023-05-01T05:40:57.374Z,526.00
2023-05-01T05:41:57.395Z,528.00
2023-05-01T05:42:57.396Z,527.00
2023-05-01T05:43:57.377Z,519.00
2023-05-01T05:44:57.411Z,525.00
2023-05-01T05:45:57.465Z,529.00
2023-05-01T05:46:57.393Z,526.00
2023-05-01T05:47:57.496Z,525.00
2023-05-01T05:48:57.373Z,523.00
2023-05-01T05:49:57.600Z,527.00
2023-05-01T05:50:57.340Z,525.00
2023-05-01T05:51:57.360Z,527.00
2023-05-01T05:52:57.324Z,528.00
2023-05-01T05:53:57.341Z,523.00
2023-05-01T05:54:57.345Z,527.00
2023-05-01T05:55:57.367Z,521.00
2023-05-01T05:56:57.348Z,526.00
2023-05-01T05:57:57.331Z,526.00
2023-05-01T05:58:57.325Z,522.00
2023-05-01T05:59:57.964Z,523.00
2023-05-01T06:00:57.338Z,530.00
2023-05-01T06:01:57.518Z,526.00
2023-05-01T06:02:57.400Z,525.00
2023-05-01T06:03:57.347Z,521.00
2023-05-01T06:04:57.337Z,524.00
2023-05-01T06:05:57.408Z,528.00
2023-05-01T06:06:57.456Z,526.00
2023-05-01T06:07:57.378Z,526.00
2023-05-01T06:08:57.351Z,522.00
2023-05-01T06:09:57.479Z,527.00
2023-05-01T06:10:57.325Z,523.00
2023-05-01T06:11:57.341Z,522.00
2023-05-01T06:13:04.415Z,526.00
2023-05-01T06:13:58.377Z,526.00
2023-05-01T06:14:57.327Z,527.00
2023-05-01T06:15:57.388Z,527.00
2023-05-01T06:16:57.290Z,530.00
2023-05-01T06:17:57.335Z,529.00
2023-05-01T06:18:57.274Z,530.00
2023-05-01T06:19:57.520Z,533.00
2023-05-01T06:20:57.272Z,525.00
2023-05-01T06:21:57.326Z,522.00
2023-05-01T06:22:57.244Z,527.00
2023-05-01T06:23:57.261Z,522.00
2023-05-01T06:24:57.234Z,523.00
2023-05-01T06:25:57.248Z,527.00
2023-05-01T06:26:57.440Z,523.00
2023-05-01T06:27:57.195Z,524.00
2023-05-01T06:28:57.186Z,527.00
2023-05-01T06:29:57.359Z,529.00
2023-05-01T06:30:57.231Z,529.00
2023-05-01T06:31:57.206Z,531.00
2023-05-01T06:32:57.228Z,525.00
2023-05-01T06:33:57.164Z,524.00
2023-05-01T06:34:57.154Z,523.00
2023-05-01T06:35:57.135Z,529.00
2023-05-01T06:36:57.174Z,525.00
2023-05-01T06:37:57.148Z,530.00
2023-05-01T06:38:57.122Z,526.00
2023-05-01T06:39:57.311Z,528.00
2023-05-01T06:40:57.115Z,523.00
2023-05-01T06:41:57.135Z,522.00
2023-05-01T06:42:57.099Z,523.00
2023-05-01T06:43:57.079Z,522.00
2023-05-01T06:44:57.077Z,525.00
2023-05-01T06:45:57.078Z,526.00
2023-05-01T06:46:57.123Z,524.00
2023-05-01T06:47:57.163Z,524.00
2023-05-01T06:48:57.062Z,530.00
2023-05-01T06:49:57.446Z,527.00
2023-05-01T06:50:57.103Z,522.00
2023-05-01T06:51:57.129Z,527.00
2023-05-01T06:52:57.185Z,521.00
2023-05-01T06:53:57.220Z,525.00
2023-05-01T06:54:57.215Z,523.00
2023-05-01T06:55:57.224Z,525.00
2023-05-01T06:56:57.267Z,530.00
2023-05-01T06:57:57.229Z,523.00
2023-05-01T06:58:57.225Z,521.00
2023-05-01T06:59:57.533Z,528.00
2023-05-01T07:00:57.275Z,521.00
2023-05-01T07:01:57.262Z,521.00
2023-05-01T07:02:57.363Z,523.00
2023-05-01T07:03:57.216Z,520.00
2023-05-01T07:04:57.218Z,524.00
2023-05-01T07:05:57.286Z,524.00
2023-05-01T07:06:57.231Z,519.00
2023-05-01T07:08:01.479Z,524.00
2023-05-01T07:08:57.226Z,525.00
2023-05-01T07:09:57.344Z,525.00
2023-05-01T07:10:57.207Z,525.00
2023-05-01T07:11:57.188Z,526.00
2023-05-01T07:12:57.178Z,525.00
2023-05-01T07:13:57.172Z,522.00
2023-05-01T07:14:58.168Z,528.00
2023-05-01T07:15:57.241Z,523.00
2023-05-01T07:16:57.268Z,522.00
2023-05-01T07:17:57.155Z,522.00
2023-05-01T07:18:57.134Z,523.00
2023-05-01T07:19:57.327Z,524.00
2023-05-01T07:20:57.130Z,526.00
2023-05-01T07:21:57.172Z,523.00
2023-05-01T07:22:57.137Z,526.00
2023-05-01T07:23:57.164Z,524.00
2023-05-01T07:24:57.084Z,528.00
2023-05-01T07:25:57.078Z,525.00
2023-05-01T07:26:57.089Z,525.00
2023-05-01T07:27:57.096Z,529.00
2023-05-01T07:28:57.062Z,523.00
2023-05-01T07:29:57.578Z,522.00
2023-05-01T07:30:57.068Z,524.00
2023-05-01T07:31:57.117Z,523.00
2023-05-01T07:32:57.379Z,525.00
2023-05-01T07:33:57.076Z,520.00
2023-05-01T07:34:57.004Z,523.00
2023-05-01T07:35:57.009Z,520.00
2023-05-01T07:36:57.093Z,520.00
2023-05-01T07:37:57.039Z,525.00
2023-05-01T07:38:56.965Z,526.00
2023-05-01T07:39:57.250Z,519.00
2023-05-01T07:40:56.979Z,523.00
2023-05-01T07:41:56.977Z,523.00
2023-05-01T07:42:57.344Z,528.00
2023-05-01T07:43:56.961Z,524.00
2023-05-01T07:44:56.942Z,524.00
2023-05-01T07:45:56.969Z,518.00
2023-05-01T07:46:56.954Z,520.00
2023-05-01T07:47:57.012Z,519.00
2023-05-01T07:48:56.911Z,519.00
2023-05-01T07:49:57.065Z,524.00
2023-05-01T07:50:56.893Z,519.00
2023-05-01T07:51:56.889Z,522.00
2023-05-01T07:52:56.885Z,520.00
2023-05-01T07:53:56.916Z,520.00
2023-05-01T07:54:56.856Z,522.00
2023-05-01T07:55:56.862Z,522.00
2023-05-01T07:56:56.853Z,518.00
2023-05-01T07:57:56.919Z,526.00
2023-05-01T07:58:56.830Z,520.00
2023-05-01T07:59:57.073Z,519.00
2023-05-01T08:00:56.835Z,517.00
2023-05-01T08:01:56.881Z,521.00
2023-05-01T08:02:56.895Z,523.00
2023-05-01T08:03:57.017Z,515.00
2023-05-01T08:04:56.848Z,521.00
2023-05-01T08:05:56.818Z,516.00
2023-05-01T08:06:56.863Z,519.00
2023-05-01T08:07:56.788Z,525.00
2023-05-01T08:08:56.760Z,518.00
2023-05-01T08:09:59.842Z,520.00
2023-05-01T08:10:56.762Z,526.00
2023-05-01T08:11:56.740Z,521.00
2023-05-01T08:12:56.742Z,522.00
2023-05-01T08:13:56.717Z,521.00
2023-05-01T08:14:56.723Z,523.00
2023-05-01T08:15:56.756Z,517.00
2023-05-01T08:16:56.709Z,522.00
2023-05-01T08:17:56.762Z,518.00
2023-05-01T08:18:56.715Z,523.00
2023-05-01T08:19:57.082Z,523.00
2023-05-01T08:20:56.678Z,521.00
2023-05-01T08:21:56.670Z,522.00
2023-05-01T08:22:56.690Z,522.00
2023-05-01T08:23:56.685Z,523.00
2023-05-01T08:24:56.687Z,521.00
2023-05-01T08:25:56.626Z,520.00
2023-05-01T08:26:56.661Z,518.00
2023-05-01T08:27:56.634Z,521.00
2023-05-01T08:28:56.615Z,520.00
2023-05-01T08:29:56.947Z,521.00
2023-05-01T08:30:56.755Z,523.00
2023-05-01T08:31:56.709Z,518.00
2023-05-01T08:32:56.630Z,518.00
2023-05-01T08:33:56.645Z,517.00
2023-05-01T08:34:56.574Z,521.00
2023-05-01T08:35:56.574Z,519.00
2023-05-01T08:36:56.590Z,521.00
2023-05-01T08:37:56.544Z,521.00
2023-05-01T08:38:56.653Z,523.00
2023-05-01T08:39:56.757Z,522.00
2023-05-01T08:40:56.547Z,518.00
2023-05-01T08:41:56.555Z,517.00
2023-05-01T08:42:56.870Z,517.00
2023-05-01T08:43:56.500Z,519.00
2023-05-01T08:44:56.496Z,512.00
2023-05-01T08:45:56.490Z,517.00
2023-05-01T08:46:56.496Z,517.00
2023-05-01T08:47:56.568Z,517.00
2023-05-01T08:48:56.496Z,514.00
2023-05-01T08:49:56.792Z,513.00
2023-05-01T08:50:56.718Z,517.00
2023-05-01T08:51:56.648Z,513.00
2023-05-01T08:52:56.738Z,512.00
2023-05-01T08:53:56.783Z,519.00
2023-05-01T08:54:56.824Z,515.00
2023-05-01T08:55:56.878Z,515.00
2023-05-01T08:56:56.957Z,514.00
2023-05-01T08:57:57.085Z,517.00
2023-05-01T08:58:57.181Z,513.00
2023-05-01T08:59:57.327Z,516.00
2023-05-01T09:00:57.181Z,515.00
2023-05-01T09:01:57.284Z,514.00
2023-05-01T09:02:57.338Z,512.00
2023-05-01T09:03:57.432Z,514.00
2023-05-01T09:04:57.403Z,512.00
2023-05-01T09:05:57.509Z,514.00
2023-05-01T09:06:57.538Z,512.00
2023-05-01T09:07:57.652Z,517.00
2023-05-01T09:08:57.644Z,515.00
2023-05-01T09:09:57.900Z,514.00
2023-05-01T09:10:57.732Z,518.00
2023-05-01T09:11:57.792Z,511.00
2023-05-01T09:12:57.816Z,515.00
2023-05-01T09:13:57.918Z,516.00
2023-05-01T09:14:57.959Z,512.00
2023-05-01T09:15:58.039Z,512.00
2023-05-01T09:16:58.123Z,510.00
2023-05-01T09:17:59.188Z,516.00
2023-05-01T09:18:58.072Z,517.00
2023-05-01T09:19:58.394Z,514.00
2023-05-01T09:20:58.067Z,516.00
2023-05-01T09:21:58.067Z,515.00
2023-05-01T09:22:58.044Z,514.00
2023-05-01T09:23:58.074Z,510.00
2023-05-01T09:24:58.043Z,516.00
2023-05-01T09:25:58.051Z,511.00
2023-05-01T09:26:58.060Z,514.00
2023-05-01T09:27:58.051Z,518.00
2023-05-01T09:28:58.058Z,512.00
2023-05-01T09:29:58.287Z,517.00
2023-05-01T09:30:57.991Z,516.00
2023-05-01T09:31:58.067Z,509.00
2023-05-01T09:32:58.154Z,517.00
2023-05-01T09:33:58.005Z,515.00
2023-05-01T09:34:57.960Z,514.00
2023-05-01T09:35:57.980Z,512.00
2023-05-01T09:36:57.972Z,514.00
2023-05-01T09:37:57.984Z,514.00
2023-05-01T09:38:57.947Z,516.00
2023-05-01T09:39:58.194Z,514.00
2023-05-01T09:40:57.931Z,513.00
2023-05-01T09:41:57.931Z,513.00
2023-05-01T09:42:57.934Z,519.00
2023-05-01T09:43:57.931Z,517.00
2023-05-01T09:44:57.892Z,519.00
2023-05-01T09:45:57.948Z,515.00
2023-05-01T09:46:57.896Z,520.00
2023-05-01T09:47:58.447Z,513.00
2023-05-01T09:48:57.894Z,515.00
2023-05-01T09:49:58.163Z,522.00
2023-05-01T09:50:57.850Z,514.00
2023-05-01T09:51:57.902Z,514.00
2023-05-01T09:52:57.847Z,519.00
2023-05-01T09:53:57.844Z,514.00
2023-05-01T09:54:57.864Z,518.00
2023-05-01T09:55:57.939Z,520.00
2023-05-01T09:56:57.958Z,518.00
2023-05-01T09:57:58.077Z,514.00
2023-05-01T09:58:58.055Z,514.00
2023-05-01T09:59:58.299Z,514.00
2023-05-01T10:00:58.210Z,514.00
2023-05-01T10:01:58.351Z,515.00
2023-05-01T10:02:58.299Z,518.00
2023-05-01T10:03:58.381Z,519.00
2023-05-01T10:04:58.355Z,517.00
2023-05-01T10:05:58.441Z,519.00
2023-05-01T10:06:58.465Z,519.00
2023-05-01T10:07:58.476Z,514.00
2023-05-01T10:08:58.514Z,519.00
2023-05-01T10:10:00.882Z,516.00
2023-05-01T10:10:58.573Z,520.00
2023-05-01T10:11:58.621Z,522.00
2023-05-01T10:12:58.566Z,518.00
2023-05-01T10:13:58.590Z,521.00
2023-05-01T10:14:58.538Z,519.00
2023-05-01T10:15:58.583Z,518.00
2023-05-01T10:16:58.556Z,519.00
2023-05-01T10:17:58.988Z,520.00
2023-05-01T10:18:58.514Z,518.00
2023-05-01T10:19:58.862Z,517.00
2023-05-01T10:20:58.523Z,520.00
2023-05-01T10:21:58.480Z,519.00
2023-05-01T10:22:58.491Z,521.00
2023-05-01T10:23:58.481Z,517.00
2023-05-01T10:24:58.470Z,518.00
2023-05-01T10:25:59.156Z,520.00
2023-05-01T10:26:58.481Z,522.00
2023-05-01T10:27:58.454Z,524.00
2023-05-01T10:28:58.462Z,519.00
2023-05-01T10:29:58.624Z,520.00
2023-05-01T10:30:58.493Z,522.00
2023-05-01T10:31:58.658Z,520.00
2023-05-01T10:32:58.476Z,522.00
2023-05-01T10:33:58.423Z,520.00
2023-05-01T10:34:58.590Z,523.00
2023-05-01T10:35:58.403Z,522.00
2023-05-01T10:36:58.393Z,517.00
2023-05-01T10:37:58.410Z,523.00
2023-05-01T10:38:58.382Z,521.00
2023-05-01T10:39:58.413Z,516.00
2023-05-01T10:40:58.414Z,518.00
2023-05-01T10:41:58.492Z,519.00
2023-05-01T10:42:58.508Z,524.00
2023-05-01T10:43:58.560Z,525.00
2023-05-01T10:44:58.736Z,525.00
2023-05-01T10:45:58.666Z,522.00
2023-05-01T10:46:58.742Z,521.00
2023-05-01T10:47:58.704Z,525.00
2023-05-01T10:48:58.745Z,519.00
2023-05-01T10:49:58.788Z,524.00
2023-05-01T10:50:58.822Z,526.00
2023-05-01T10:51:59.109Z,523.00
2023-05-01T10:52:58.928Z,520.00
2023-05-01T10:53:58.947Z,521.00
2023-05-01T10:54:59.015Z,525.00
2023-05-01T10:55:59.068Z,524.00
2023-05-01T10:56:59.076Z,524.00
2023-05-01T10:57:59.147Z,521.00
2023-05-01T10:58:59.165Z,520.00
2023-05-01T10:59:59.227Z,520.00
2023-05-01T11:00:59.253Z,522.00
2023-05-01T11:01:59.376Z,520.00
2023-05-01T11:02:59.375Z,523.00
2023-05-01T11:03:59.429Z,520.00
2023-05-01T11:04:59.736Z,520.00
2023-05-01T11:05:59.583Z,526.00
2023-05-01T11:06:59.610Z,524.00
2023-05-01T11:07:59.543Z,522.00
2023-05-01T11:08:59.585Z,524.00
2023-05-01T11:09:59.653Z,523.00
2023-05-01T11:10:59.657Z,521.00
2023-05-01T11:11:59.698Z,518.00
2023-05-01T11:12:59.759Z,520.00
2023-05-01T11:13:59.760Z,519.00
2023-05-01T11:14:59.933Z,519.00
2023-05-01T11:16:00.440Z,521.00
2023-05-01T11:16:59.864Z,519.00
2023-05-01T11:17:59.953Z,521.00
2023-05-01T11:18:59.945Z,522.00
2023-05-01T11:19:59.997Z,516.00
2023-05-01T11:21:00.036Z,522.00
2023-05-01T11:22:00.059Z,521.00
2023-05-01T11:23:00.094Z,522.00
2023-05-01T11:24:00.122Z,522.00
2023-05-01T11:25:00.163Z,520.00
2023-05-01T11:26:00.222Z,520.00
2023-05-01T11:27:00.230Z,524.00
2023-05-01T11:28:00.282Z,522.00
2023-05-01T11:29:00.334Z,519.00
2023-05-01T11:30:00.343Z,519.00
2023-05-01T11:31:00.383Z,519.00
2023-05-01T11:32:00.484Z,519.00
2023-05-01T11:33:00.494Z,525.00
2023-05-01T11:34:00.493Z,525.00
2023-05-01T11:35:00.632Z,522.00
2023-05-01T11:36:00.615Z,521.00
2023-05-01T11:37:00.622Z,520.00
2023-05-01T11:38:00.687Z,522.00
2023-05-01T11:39:00.710Z,527.00
2023-05-01T11:40:00.805Z,521.00
2023-05-01T11:41:00.838Z,526.00
2023-05-01T11:42:00.894Z,523.00
2023-05-01T11:43:00.929Z,525.00
2023-05-01T11:44:00.969Z,522.00
2023-05-01T11:45:00.985Z,523.00
2023-05-01T11:46:01.094Z,525.00
2023-05-01T11:47:01.061Z,523.00
2023-05-01T11:48:04.185Z,521.00
2023-05-01T11:49:01.080Z,530.00
2023-05-01T11:50:01.122Z,527.00
2023-05-01T11:51:01.060Z,526.00
2023-05-01T11:52:01.064Z,522.00
2023-05-01T11:53:01.097Z,528.00
2023-05-01T11:54:01.079Z,521.00
2023-05-01T11:55:01.239Z,521.00
2023-05-01T11:56:01.090Z,523.00
2023-05-01T11:57:01.161Z,529.00
2023-05-01T11:58:01.040Z,524.00
2023-05-01T11:59:01.006Z,528.00
2023-05-01T12:00:01.053Z,530.00
2023-05-01T12:01:01.000Z,532.00
2023-05-01T12:02:01.053Z,535.00
2023-05-01T12:03:01.300Z,537.00
2023-05-01T12:04:01.050Z,532.00
2023-05-01T12:05:01.359Z,536.00
2023-05-01T12:06:00.984Z,536.00
2023-05-01T12:07:00.956Z,535.00
2023-05-01T12:08:00.936Z,534.00
2023-05-01T12:09:00.963Z,535.00
2023-05-01T12:10:00.940Z,532.00
2023-05-01T12:11:00.929Z,533.00
2023-05-01T12:12:00.948Z,532.00
2023-05-01T12:13:00.974Z,535.00
2023-05-01T12:14:00.926Z,531.00
2023-05-01T12:15:00.970Z,537.00
2023-05-01T12:16:00.881Z,532.00
2023-05-01T12:17:00.943Z,531.00
2023-05-01T12:18:00.921Z,532.00
2023-05-01T12:19:00.879Z,535.00
2023-05-01T12:20:00.872Z,534.00
2023-05-01T12:21:00.861Z,533.00
2023-05-01T12:22:00.849Z,533.00
2023-05-01T12:23:00.848Z,537.00
2023-05-01T12:24:00.875Z,532.00
2023-05-01T12:25:00.913Z,535.00
2023-05-01T12:26:00.910Z,534.00
2023-05-01T12:27:00.924Z,534.00
2023-05-01T12:28:00.962Z,533.00
2023-05-01T12:29:00.999Z,529.00